createdAt,value
2023-01-17T00:02:13.932Z,85.76
2023-01-17T00:04:59.588Z,86.66
2023-01-17T00:07:45.869Z,86.66
2023-01-17T00:10:16.948Z,86.19
2023-01-17T00:12:50.473Z,86.51
2023-01-17T00:15:19.785Z,86.65
2023-01-17T00:17:48.709Z,86.82
2023-01-17T00:20:36.239Z,86.06
2023-01-17T00:23:25.208Z,86.89
2023-01-17T00:26:05.877Z,86.95
2023-01-17T00:28:37.115Z,86.48
2023-01-17T00:31:06.525Z,86.54
2023-01-17T00:33:33.947Z,87.13
2023-01-17T00:36:02.508Z,87.29
2023-01-17T00:38:31.855Z,86.34
2023-01-17T00:41:03.889Z,86.01
2023-01-17T00:43:50.044Z,86.78
2023-01-17T00:46:37.652Z,86.18
2023-01-17T00:49:23.876Z,86.47
2023-01-17T00:52:10.946Z,86.59
2023-01-17T00:54:56.356Z,86.62
2023-01-17T00:57:42.202Z,86.84
2023-01-17T01:00:29.844Z,86.78
2023-01-17T01:03:16.918Z,87.05
2023-01-17T01:06:02.470Z,87.63
2023-01-17T01:08:49.315Z,87.01
2023-01-17T01:11:38.953Z,87.28
2023-01-17T01:14:27.003Z,87.39
2023-01-17T01:17:12.478Z,87.13
2023-01-17T01:19:59.598Z,87.64
2023-01-17T01:22:45.059Z,86.87
2023-01-17T01:25:30.640Z,87.04
2023-01-17T01:28:23.637Z,85.84
2023-01-17T01:31:09.012Z,87.05
2023-01-17T01:33:37.147Z,86.64
2023-01-17T01:36:09.813Z,87.11
2023-01-17T01:38:38.601Z,88.11
2023-01-17T01:41:07.550Z,87.76
2023-01-17T01:43:46.749Z,88.52
2023-01-17T01:46:21.295Z,88.33
2023-01-17T01:48:54.720Z,88.87
2023-01-17T01:51:30.459Z,88.53
2023-01-17T01:54:07.820Z,87.87
2023-01-17T01:56:37.089Z,86.98
2023-01-17T01:59:10.669Z,86.67
2023-01-17T02:01:38.900Z,87.36
2023-01-17T02:04:09.832Z,86.85
2023-01-17T02:06:44.997Z,87.07
2023-01-17T02:09:16.030Z,86.33
2023-01-17T02:11:46.389Z,86.10
2023-01-17T02:14:17.095Z,85.74
2023-01-17T02:17:06.143Z,85.83
2023-01-17T02:20:20.422Z,85.51
2023-01-17T02:23:28.886Z,85.51
2023-01-17T02:27:01.654Z,85.67
2023-01-17T02:30:20.834Z,85.43
2023-01-17T02:33:23.309Z,85.42
2023-01-17T02:36:05.097Z,85.53
2023-01-17T02:38:44.462Z,85.94
2023-01-17T02:41:22.922Z,86.23
2023-01-17T02:43:53.314Z,85.57
2023-01-17T02:46:21.684Z,86.09
2023-01-17T02:48:52.687Z,86.10
2023-01-17T02:51:52.236Z,86.84
2023-01-17T02:55:06.413Z,86.33
2023-01-17T02:57:59.366Z,86.39
2023-01-17T03:00:42.299Z,86.57
2023-01-17T03:03:27.060Z,87.27
2023-01-17T03:06:11.451Z,86.79
2023-01-17T03:08:44.318Z,86.93
2023-01-17T03:11:14.735Z,87.08
2023-01-17T03:13:42.815Z,86.94
2023-01-17T03:16:18.316Z,87.27
2023-01-17T03:18:46.662Z,86.64
2023-01-17T03:21:16.055Z,86.89
2023-01-17T03:23:44.137Z,86.88
2023-01-17T03:26:12.216Z,86.48
2023-01-17T03:28:40.219Z,86.59
2023-01-17T03:31:08.493Z,86.11
2023-01-17T03:33:36.755Z,86.60
2023-01-17T03:36:05.704Z,86.09
2023-01-17T03:38:37.184Z,86.49
2023-01-17T03:41:05.674Z,85.00
2023-01-17T03:43:33.786Z,84.85
2023-01-17T03:46:07.008Z,85.90
2023-01-17T03:48:35.515Z,85.48
2023-01-17T03:51:03.606Z,85.40
2023-01-17T03:53:31.614Z,85.22
2023-01-17T03:56:00.996Z,84.76
2023-01-17T03:58:29.040Z,84.57
2023-01-17T04:00:57.184Z,84.44
2023-01-17T04:03:25.321Z,84.15
2023-01-17T04:05:53.343Z,84.52
2023-01-17T04:08:21.459Z,84.73
2023-01-17T04:10:49.520Z,85.25
2023-01-17T04:13:18.968Z,84.74
2023-01-17T04:15:50.064Z,84.91
2023-01-17T04:18:20.111Z,85.14
2023-01-17T04:20:48.369Z,85.26
2023-01-17T04:23:16.382Z,84.56
2023-01-17T04:25:44.609Z,84.28
2023-01-17T04:28:13.302Z,83.82
2023-01-17T04:30:43.039Z,84.28
2023-01-17T04:33:11.093Z,83.49
2023-01-17T04:35:39.148Z,83.78
2023-01-17T04:38:07.190Z,84.13
2023-01-17T04:40:35.236Z,83.28
2023-01-17T04:43:03.275Z,83.43
2023-01-17T04:45:31.306Z,83.16
2023-01-17T04:48:06.141Z,82.90
2023-01-17T04:50:34.743Z,82.54
2023-01-17T04:53:02.750Z,82.75
2023-01-17T04:55:30.886Z,83.03
2023-01-17T04:57:58.947Z,83.10
2023-01-17T05:00:27.103Z,83.82
2023-01-17T05:02:55.225Z,84.41
2023-01-17T05:05:24.698Z,84.46
2023-01-17T05:07:56.553Z,84.82
2023-01-17T05:10:25.453Z,85.64
2023-01-17T05:12:56.132Z,85.60
2023-01-17T05:15:25.410Z,86.29
2023-01-17T05:17:54.864Z,85.68
2023-01-17T05:20:27.020Z,86.49
2023-01-17T05:22:56.416Z,86.40
2023-01-17T05:25:24.994Z,86.47
2023-01-17T05:27:53.697Z,85.83
2023-01-17T05:30:22.901Z,86.71
2023-01-17T05:32:52.930Z,86.67
2023-01-17T05:35:25.858Z,86.86
2023-01-17T05:37:54.248Z,87.06
2023-01-17T05:40:24.741Z,86.62
2023-01-17T05:42:56.600Z,87.68
2023-01-17T05:45:28.038Z,87.39
2023-01-17T05:47:58.333Z,86.85
2023-01-17T05:50:30.223Z,87.39
2023-01-17T05:53:01.283Z,86.59
2023-01-17T05:55:31.567Z,86.25
2023-01-17T05:58:00.049Z,85.28
2023-01-17T06:00:28.884Z,85.25
2023-01-17T06:02:58.964Z,85.69
2023-01-17T06:05:29.635Z,85.43
2023-01-17T06:07:57.848Z,85.50
2023-01-17T06:10:26.933Z,85.77
2023-01-17T06:13:03.728Z,85.58
2023-01-17T06:15:32.100Z,86.55
2023-01-17T06:18:05.164Z,86.56
2023-01-17T06:20:35.009Z,87.27
2023-01-17T06:23:04.325Z,87.14
2023-01-17T06:25:37.642Z,87.38
2023-01-17T06:28:06.256Z,87.39
2023-01-17T06:30:34.526Z,87.48
2023-01-17T06:33:03.228Z,87.88
2023-01-17T06:35:32.063Z,88.13
2023-01-17T06:38:01.600Z,88.01
2023-01-17T06:40:31.168Z,87.68
2023-01-17T06:43:02.056Z,87.50
2023-01-17T06:45:30.952Z,88.01
2023-01-17T06:47:59.814Z,87.70
2023-01-17T06:50:28.154Z,87.01
2023-01-17T06:52:58.116Z,87.03
2023-01-17T06:55:29.239Z,87.29
2023-01-17T06:57:59.407Z,87.08
2023-01-17T07:00:29.390Z,86.98
2023-01-17T07:02:57.685Z,87.51
2023-01-17T07:05:25.975Z,87.52
2023-01-17T07:07:54.114Z,86.96
2023-01-17T07:10:23.569Z,88.05
2023-01-17T07:12:52.932Z,88.31
2023-01-17T07:15:20.964Z,87.73
2023-01-17T07:17:49.023Z,88.25
2023-01-17T07:20:17.507Z,88.25
2023-01-17T07:22:46.251Z,88.18
2023-01-17T07:25:14.361Z,87.53
2023-01-17T07:27:42.392Z,87.64
2023-01-17T07:30:14.241Z,87.76
2023-01-17T07:32:42.421Z,87.47
2023-01-17T07:35:10.995Z,87.58
2023-01-17T07:37:39.906Z,87.23
2023-01-17T07:40:09.774Z,87.20
2023-01-17T07:42:37.792Z,87.92
2023-01-17T07:45:07.781Z,86.85
2023-01-17T07:47:37.186Z,86.98
2023-01-17T07:50:06.505Z,86.77
2023-01-17T07:52:34.563Z,86.66
2023-01-17T07:55:02.641Z,87.36
2023-01-17T07:57:32.493Z,87.39
2023-01-17T08:00:00.535Z,87.22
2023-01-17T08:02:28.602Z,86.78
2023-01-17T08:04:58.000Z,86.93
2023-01-17T08:07:26.096Z,87.17
2023-01-17T08:09:55.404Z,87.15
2023-01-17T08:12:23.443Z,86.81
2023-01-17T08:14:51.451Z,87.07
2023-01-17T08:17:20.407Z,86.84
2023-01-17T08:19:51.190Z,85.77
2023-01-17T08:22:20.692Z,85.69
2023-01-17T08:24:48.935Z,85.24
2023-01-17T08:27:16.986Z,85.88
2023-01-17T08:29:48.216Z,86.44
2023-01-17T08:32:16.619Z,86.16
2023-01-17T08:34:45.048Z,85.86
2023-01-17T08:37:13.037Z,85.61
2023-01-17T08:39:42.526Z,85.47
2023-01-17T08:42:10.744Z,85.78
2023-01-17T08:44:39.725Z,85.58
2023-01-17T08:47:07.916Z,85.28
2023-01-17T08:49:35.982Z,85.08
2023-01-17T08:52:05.136Z,85.04
2023-01-17T08:54:33.473Z,85.40
2023-01-17T08:57:04.769Z,84.57
2023-01-17T08:59:32.800Z,84.74
2023-01-17T09:02:06.613Z,84.77
2023-01-17T09:04:35.177Z,83.44
2023-01-17T09:07:03.238Z,83.45
2023-01-17T09:09:31.241Z,83.36
2023-01-17T09:11:59.337Z,83.48
2023-01-17T09:14:28.743Z,83.57
2023-01-17T09:16:56.851Z,83.77
2023-01-17T09:19:24.906Z,83.01
2023-01-17T09:21:52.914Z,82.98
2023-01-17T09:24:21.042Z,81.54
2023-01-17T09:26:49.126Z,81.97
2023-01-17T09:29:18.715Z,82.59
2023-01-17T09:31:48.186Z,82.13
2023-01-17T09:34:18.499Z,81.95
2023-01-17T09:36:46.769Z,82.51
2023-01-17T09:39:15.532Z,81.15
2023-01-17T09:41:53.871Z,81.03
2023-01-17T09:44:30.647Z,81.18
2023-01-17T09:47:05.822Z,79.76
2023-01-17T09:49:39.578Z,80.71
2023-01-17T09:52:13.010Z,80.96
2023-01-17T09:54:46.091Z,79.80
2023-01-17T09:57:39.668Z,80.06
2023-01-17T10:00:26.534Z,80.10
2023-01-17T10:03:28.684Z,79.26
2023-01-17T10:06:23.379Z,79.31
2023-01-17T10:09:25.230Z,78.03
2023-01-17T10:12:18.630Z,78.30
2023-01-17T10:15:07.051Z,78.61
2023-01-17T10:17:52.976Z,77.86
2023-01-17T10:20:44.060Z,76.59
2023-01-17T10:23:39.322Z,76.92
2023-01-17T10:26:12.914Z,76.52
2023-01-17T10:28:50.503Z,77.77
2023-01-17T10:31:24.905Z,77.43
2023-01-17T10:33:55.510Z,77.58
2023-01-17T10:36:28.507Z,75.26
2023-01-17T10:39:01.572Z,75.44
2023-01-17T10:41:34.298Z,75.60
2023-01-17T10:44:15.948Z,75.02
2023-01-17T10:46:52.751Z,75.51
2023-01-17T10:49:25.646Z,75.20
2023-01-17T10:52:12.749Z,75.16
2023-01-17T10:55:04.940Z,73.85
2023-01-17T10:57:43.270Z,74.49
2023-01-17T11:00:45.355Z,72.99
2023-01-17T11:03:15.357Z,73.94
2023-01-17T11:05:44.301Z,73.08
2023-01-17T11:08:15.778Z,73.89
2023-01-17T11:10:46.432Z,72.21
2023-01-17T11:13:30.399Z,71.50
2023-01-17T11:16:02.408Z,72.54
2023-01-17T11:18:33.910Z,72.78
2023-01-17T11:21:15.573Z,72.51
2023-01-17T11:23:47.771Z,72.56
2023-01-17T11:26:27.611Z,71.96
2023-01-17T11:29:16.188Z,72.11
2023-01-17T11:31:44.250Z,73.14
2023-01-17T11:34:18.989Z,72.42
2023-01-17T11:36:47.230Z,71.67
2023-01-17T11:39:29.705Z,72.54
2023-01-17T11:41:58.355Z,71.27
2023-01-17T11:44:30.256Z,70.72
2023-01-17T11:47:16.946Z,70.85
2023-01-17T11:49:48.179Z,70.34
2023-01-17T11:52:25.176Z,70.27
2023-01-17T11:54:56.646Z,71.18
2023-01-17T11:57:28.840Z,71.42
2023-01-17T12:00:16.562Z,72.19
2023-01-17T12:03:15.122Z,70.17
2023-01-17T12:05:59.787Z,70.75
2023-01-17T12:08:51.411Z,70.29
2023-01-17T12:11:37.149Z,69.84
2023-01-17T12:14:22.407Z,69.03
2023-01-17T12:17:10.913Z,69.54
2023-01-17T12:20:05.564Z,69.10
2023-01-17T12:23:00.884Z,68.87
2023-01-17T12:25:54.502Z,69.35
2023-01-17T12:29:20.533Z,68.27
2023-01-17T12:32:05.918Z,68.75
2023-01-17T12:34:40.944Z,68.48
2023-01-17T12:37:21.024Z,69.21
2023-01-17T12:39:58.122Z,68.60
2023-01-17T12:42:36.093Z,68.67
2023-01-17T12:45:11.094Z,68.15
2023-01-17T12:47:46.541Z,70.02
2023-01-17T12:50:27.255Z,68.72
2023-01-17T12:53:05.952Z,67.09
2023-01-17T12:55:42.954Z,67.63
2023-01-17T12:58:19.836Z,68.27
2023-01-17T13:00:57.190Z,68.66
2023-01-17T13:03:42.407Z,68.09
2023-01-17T13:06:25.981Z,68.51
2023-01-17T13:09:01.580Z,68.31
2023-01-17T13:11:38.983Z,67.82
2023-01-17T13:14:11.135Z,67.56
2023-01-17T13:16:46.297Z,68.51
2023-01-17T13:19:30.413Z,68.16
2023-01-17T13:22:02.529Z,69.02
2023-01-17T13:24:41.467Z,66.31
2023-01-17T13:27:58.285Z,68.13
2023-01-17T13:30:49.081Z,67.13
2023-01-17T13:33:47.993Z,66.54
2023-01-17T13:36:50.446Z,67.29
2023-01-17T13:39:50.303Z,67.47
2023-01-17T13:42:30.243Z,67.64
2023-01-17T13:44:58.927Z,68.39
2023-01-17T13:47:42.592Z,68.09
2023-01-17T13:50:55.468Z,66.50
2023-01-17T13:53:48.828Z,67.03
2023-01-17T13:56:33.218Z,67.13
2023-01-17T13:59:30.208Z,67.35
2023-01-17T14:01:58.645Z,67.03
2023-01-17T14:05:10.156Z,67.49
2023-01-17T14:07:48.456Z,67.43
2023-01-17T14:10:34.136Z,68.02
2023-01-17T14:13:04.127Z,68.44
2023-01-17T14:15:47.741Z,68.44
2023-01-17T14:18:34.901Z,68.36
2023-01-17T14:21:12.567Z,68.80
2023-01-17T14:24:15.965Z,67.53
2023-01-17T14:26:57.386Z,68.46
2023-01-17T14:29:49.280Z,67.90
2023-01-17T14:32:20.771Z,67.78
2023-01-17T14:34:51.983Z,68.58
2023-01-17T14:37:46.869Z,67.67
2023-01-17T14:40:21.991Z,68.54
2023-01-17T14:43:00.158Z,68.50
2023-01-17T14:45:31.127Z,67.24
2023-01-17T14:48:02.414Z,68.55
2023-01-17T14:50:37.612Z,67.93
2023-01-17T14:53:20.136Z,68.13
2023-01-17T14:55:56.493Z,69.18
2023-01-17T14:58:28.845Z,68.92
2023-01-17T15:01:01.346Z,69.49
2023-01-17T15:03:34.569Z,69.22
2023-01-17T15:06:12.546Z,69.18
2023-01-17T15:08:41.015Z,69.40
2023-01-17T15:11:19.367Z,69.34
2023-01-17T15:13:51.611Z,69.09
2023-01-17T15:16:24.047Z,70.37
2023-01-17T15:18:53.483Z,69.64
2023-01-17T15:21:25.616Z,69.73
2023-01-17T15:23:58.119Z,69.98
2023-01-17T15:26:30.725Z,69.76
2023-01-17T15:29:06.934Z,69.43
2023-01-17T15:31:45.434Z,69.10
2023-01-17T15:34:29.372Z,68.98
2023-01-17T15:37:01.061Z,69.24
2023-01-17T15:39:32.883Z,68.47
2023-01-17T15:42:06.931Z,69.70
2023-01-17T15:44:48.204Z,70.36
2023-01-17T15:47:30.684Z,69.59
2023-01-17T15:50:00.584Z,69.51
2023-01-17T15:52:32.866Z,69.46
2023-01-17T15:55:15.159Z,69.73
2023-01-17T15:57:48.456Z,69.68
2023-01-17T16:00:26.182Z,69.54
2023-01-17T16:02:57.053Z,68.74
2023-01-17T16:05:41.709Z,69.73
2023-01-17T16:08:33.935Z,69.97
2023-01-17T16:11:06.010Z,69.81
2023-01-17T16:13:38.503Z,69.50
2023-01-17T16:16:17.722Z,70.08
2023-01-17T16:18:47.634Z,71.40
2023-01-17T16:21:25.800Z,70.84
2023-01-17T16:23:54.692Z,71.43
2023-01-17T16:26:23.559Z,70.43
2023-01-17T16:28:53.306Z,70.53
2023-01-17T16:31:21.678Z,71.17
2023-01-17T16:33:51.628Z,70.91
2023-01-17T16:36:21.337Z,71.70
2023-01-17T16:38:52.130Z,71.43
2023-01-17T16:41:21.328Z,71.39
2023-01-17T16:44:00.922Z,71.29
2023-01-17T16:46:30.455Z,71.65
2023-01-17T16:49:01.683Z,71.86
2023-01-17T16:51:29.787Z,71.75
2023-01-17T16:53:58.126Z,72.19
2023-01-17T16:56:26.190Z,72.42
2023-01-17T16:58:56.219Z,72.65
2023-01-17T17:01:25.227Z,72.18
2023-01-17T17:03:53.443Z,72.72
2023-01-17T17:06:21.676Z,72.49
2023-01-17T17:08:49.857Z,72.33
2023-01-17T17:11:20.345Z,73.19
2023-01-17T17:13:51.021Z,73.15
2023-01-17T17:16:26.699Z,73.49
2023-01-17T17:19:01.647Z,73.51
2023-01-17T17:21:31.729Z,73.74
2023-01-17T17:24:01.642Z,73.11
2023-01-17T17:26:34.378Z,74.05
2023-01-17T17:29:03.810Z,73.85
2023-01-17T17:31:33.361Z,74.00
2023-01-17T17:34:03.498Z,74.98
2023-01-17T17:36:32.298Z,73.94
2023-01-17T17:39:03.530Z,74.23
2023-01-17T17:41:34.566Z,74.27
2023-01-17T17:44:04.717Z,74.14
2023-01-17T17:46:34.935Z,74.59
2023-01-17T17:49:03.439Z,74.26
2023-01-17T17:51:35.241Z,74.74
2023-01-17T17:54:07.146Z,73.88
2023-01-17T17:56:36.815Z,74.08
2023-01-17T17:59:07.408Z,74.45
2023-01-17T18:01:38.153Z,74.67
2023-01-17T18:04:07.617Z,74.71
2023-01-17T18:06:38.509Z,75.05
2023-01-17T18:09:07.998Z,75.50
2023-01-17T18:11:38.326Z,75.69
2023-01-17T18:14:09.463Z,74.52
2023-01-17T18:16:42.152Z,75.56
2023-01-17T18:19:15.496Z,74.95
2023-01-17T18:21:43.950Z,74.64
2023-01-17T18:24:15.009Z,75.29
2023-01-17T18:26:46.519Z,75.06
2023-01-17T18:29:17.736Z,74.39
2023-01-17T18:31:50.067Z,74.35
2023-01-17T18:34:21.188Z,73.91
2023-01-17T18:36:49.599Z,74.53
2023-01-17T18:39:20.607Z,74.10
2023-01-17T18:41:49.396Z,74.92
2023-01-17T18:44:21.806Z,74.79
2023-01-17T18:46:53.543Z,74.88
2023-01-17T18:49:22.014Z,73.71
2023-01-17T18:51:51.746Z,74.32
2023-01-17T18:54:21.026Z,74.69
2023-01-17T18:56:49.685Z,75.37
2023-01-17T18:59:19.614Z,75.58
2023-01-17T19:01:48.349Z,75.98
2023-01-17T19:04:18.865Z,74.98
2023-01-17T19:06:49.079Z,75.52
2023-01-17T19:09:17.974Z,75.60
2023-01-17T19:11:47.483Z,74.52
2023-01-17T19:14:15.841Z,74.90
2023-01-17T19:16:44.924Z,74.39
2023-01-17T19:19:16.764Z,74.32
2023-01-17T19:21:45.292Z,74.87
2023-01-17T19:24:14.280Z,74.70
2023-01-17T19:26:42.745Z,75.74
2023-01-17T19:29:13.119Z,74.42
2023-01-17T19:31:42.902Z,75.18
2023-01-17T19:34:13.691Z,75.77
2023-01-17T19:36:43.765Z,75.91
2023-01-17T19:39:12.592Z,75.84
2023-01-17T19:41:45.545Z,75.02
2023-01-17T19:44:15.496Z,76.45
2023-01-17T19:46:44.209Z,75.44
2023-01-17T19:49:12.606Z,74.42
2023-01-17T19:51:42.027Z,74.89
2023-01-17T19:54:10.587Z,75.03
2023-01-17T19:56:38.700Z,75.79
2023-01-17T19:59:07.071Z,75.60
2023-01-17T20:01:36.185Z,75.93
2023-01-17T20:04:04.841Z,75.91
2023-01-17T20:06:36.958Z,74.82
2023-01-17T20:09:07.987Z,75.54
2023-01-17T20:11:36.157Z,75.90
2023-01-17T20:14:06.129Z,76.05
2023-01-17T20:16:37.363Z,75.98
2023-01-17T20:19:06.041Z,75.23
2023-01-17T20:21:34.320Z,75.05
2023-01-17T20:24:04.144Z,74.61
2023-01-17T20:26:36.607Z,74.85
2023-01-17T20:29:10.443Z,74.85
2023-01-17T20:31:39.862Z,74.71
2023-01-17T20:34:11.441Z,74.80
2023-01-17T20:36:41.522Z,74.91
2023-01-17T20:39:12.093Z,75.37
2023-01-17T20:41:44.748Z,75.30
2023-01-17T20:44:16.224Z,76.22
2023-01-17T20:46:45.425Z,75.65
2023-01-17T20:49:18.719Z,76.53
2023-01-17T20:51:48.088Z,76.56
2023-01-17T20:54:18.939Z,75.34
2023-01-17T20:56:48.945Z,76.35
2023-01-17T20:59:20.116Z,76.64
2023-01-17T21:01:48.544Z,75.41
2023-01-17T21:04:17.908Z,75.57
2023-01-17T21:06:46.722Z,76.08
2023-01-17T21:09:17.098Z,76.26
2023-01-17T21:11:45.225Z,75.37
2023-01-17T21:14:14.896Z,77.07
2023-01-17T21:16:43.227Z,75.83
2023-01-17T21:19:14.874Z,76.28
2023-01-17T21:21:43.041Z,75.47
2023-01-17T21:24:16.154Z,76.44
2023-01-17T21:26:45.607Z,74.96
2023-01-17T21:29:16.028Z,76.04
2023-01-17T21:31:45.159Z,75.56
2023-01-17T21:34:14.622Z,74.92
2023-01-17T21:36:44.117Z,75.53
2023-01-17T21:39:15.922Z,76.01
2023-01-17T21:41:47.754Z,75.96
2023-01-17T21:44:21.175Z,75.14
2023-01-17T21:46:54.138Z,74.92
2023-01-17T21:49:24.202Z,75.10
2023-01-17T21:52:09.878Z,74.77
2023-01-17T21:54:55.959Z,74.38
2023-01-17T21:57:41.608Z,74.78
2023-01-17T22:00:15.276Z,75.54
2023-01-17T22:02:44.040Z,73.91
2023-01-17T22:05:12.663Z,74.19
2023-01-17T22:08:01.462Z,75.53
2023-01-17T22:10:29.634Z,76.18
2023-01-17T22:12:57.787Z,77.04
2023-01-17T22:15:27.757Z,77.34
2023-01-17T22:17:56.285Z,77.85
2023-01-17T22:20:24.563Z,76.78
2023-01-17T22:22:52.634Z,78.04
2023-01-17T22:25:21.021Z,77.12
2023-01-17T22:27:49.439Z,76.29
2023-01-17T22:30:19.417Z,76.79
2023-01-17T22:32:48.848Z,77.89
2023-01-17T22:35:17.067Z,77.17
2023-01-17T22:37:45.215Z,77.13
2023-01-17T22:40:14.260Z,77.51
2023-01-17T22:42:42.462Z,78.36
2023-01-17T22:45:11.774Z,77.59
2023-01-17T22:47:40.195Z,78.18
2023-01-17T22:50:12.211Z,77.03
2023-01-17T22:52:40.370Z,77.18
2023-01-17T22:55:09.308Z,76.36
2023-01-17T22:57:37.358Z,77.48
2023-01-17T23:00:14.356Z,75.97
2023-01-17T23:02:42.886Z,77.08
2023-01-17T23:05:12.627Z,75.67
2023-01-17T23:07:44.092Z,75.15
2023-01-17T23:10:34.903Z,75.94
2023-01-17T23:13:02.983Z,75.51
2023-01-17T23:15:48.424Z,76.69
2023-01-17T23:18:33.917Z,77.52
2023-01-17T23:21:03.327Z,77.74
2023-01-17T23:23:32.812Z,77.16
2023-01-17T23:26:01.798Z,77.90
2023-01-17T23:28:28.884Z,77.46
2023-01-17T23:31:04.830Z,77.25
2023-01-17T23:33:33.217Z,78.00
2023-01-17T23:36:01.459Z,78.30
2023-01-17T23:38:31.143Z,76.94
2023-01-17T23:41:28.887Z,77.21
2023-01-17T23:43:59.437Z,76.72
2023-01-17T23:46:29.950Z,77.88
2023-01-17T23:48:58.096Z,77.95
2023-01-17T23:51:26.160Z,77.71
2023-01-17T23:54:05.098Z,77.81
2023-01-17T23:56:33.159Z,77.99
2023-01-17T23:59:01.970Z,77.21
